Latest Weather Observations for Middle Point

IDD60901

Issued at 7:15 am CST Saturday 29 November 2014 (issued every 10 minutes, with the page automatically refreshed every 10 minutes)

About weather observations | Map of Darwin area stations | Latest observations for Darwin area | Other Formats
Station Details ID: 014041 Name: MIDDLE POINT Lat: -12.61 Lon: 131.30 Height: 14.1 m
Data from the previous 72 hours. | See also: Recent months at Middle Point
Date/Time
CST
Tmp

°C
App
Tmp
°C
Dew
Point
°C
Rel
Hum
%
Delta-T

°C
Wind Press
QNH
hPa
Press
MSL
hPa
Rain
since
9 am
mm
Dir
 
Spd
km/h
Gust
km/h
Spd
kts
Gust
kts
29/07:00am 25.7 31.1 24.5 93 0.8 NNW 4 6 2 3 1008.3 1008.2 9.2
29/06:30am 24.2 28.6 22.8 92 0.9 WNW 4 4 2 2 1008.2 1008.1 9.2
29/06:00am 24.6 29.6 23.2 92 1.0 ENE 2 6 1 3 1007.9 1007.8 9.2
29/05:30am 24.8 29.3 23.6 93 0.8 E 6 7 3 4 1007.5 1007.4 9.2
29/05:00am 24.6 29.9 23.0 91 1.1 CALM 0 0 0 0 1007.2 1007.1 9.2
29/04:30am 24.7 29.3 23.1 91 1.1 E 4 4 2 2 1006.8 1006.7 9.2
29/04:00am 24.7 29.0 23.3 92 1.0 N 6 7 3 4 1006.7 1006.6 9.2
29/03:30am 24.6 29.9 23.0 91 1.1 CALM 0 0 0 0 1006.7 1006.6 9.2
29/03:00am 24.8 30.2 23.2 91 1.1 CALM 0 0 0 0 1006.7 1006.6 9.2
29/02:30am 25.3 30.9 23.5 90 1.2 CALM 0 0 0 0 1007.0 1006.9 9.2
29/02:00am 25.3 30.9 23.5 90 1.2 CALM 0 0 0 0 1007.1 1007.0 9.2
29/01:30am 25.8 31.6 24.0 90 1.2 CALM 0 0 0 0 1007.6 1007.5 9.2
29/01:00am 25.5 30.4 23.7 90 1.2 NNW 4 4 2 2 1007.9 1007.8 9.2
29/12:30am 25.7 31.1 23.9 90 1.2 NW 2 4 1 2 1008.1 1008.0 9.2
29/12:00am 25.8 31.3 24.0 90 1.2 NNW 2 4 1 2 1008.5 1008.4 9.2
 
Date/Time
CST
Tmp

°C
App
Tmp
°C
Dew
Point
°C
Rel
Hum
%
Delta-T

°C
Wind Press
QNH
hPa
Press
MSL
hPa
Rain
since
9 am
mm
Dir
 
Spd
km/h
Gust
km/h
Spd
kts
Gust
kts
28/11:30pm 25.6 31.3 23.8 90 1.2 CALM 0 0 0 0 1008.6 1008.5 9.2
28/11:00pm 25.6 30.3 24.0 91 1.1 NNW 6 7 3 4 1008.7 1008.6 9.2
28/10:30pm 25.6 30.1 24.0 91 1.1 N 7 9 4 5 1008.6 1008.5 9.2
28/10:00pm 25.7 30.5 24.1 91 1.1 NNW 6 7 3 4 1008.5 1008.4 9.2
28/09:30pm 25.9 30.7 24.1 90 1.2 N 6 7 3 4 1008.2 1008.1 9.2
28/09:00pm 26.0 32.0 24.2 90 1.2 CALM 0 0 0 0 1007.9 1007.8 9.2
28/08:30pm 26.6 32.3 24.4 88 1.5 N 2 4 1 2 1007.6 1007.5 9.2
28/08:00pm 27.0 33.2 24.6 87 1.7 CALM 0 2 0 1 1007.4 1007.3 9.2
28/07:30pm 27.0 31.8 24.5 86 1.7 N 7 9 4 5 1007.0 1006.9 9.2
28/07:00pm 27.9 32.8 24.3 81 2.5 N 6 7 3 4 1006.7 1006.6 9.2
28/06:30pm 29.3 34.8 24.6 76 3.3 NNW 4 4 2 2 1006.4 1006.3 9.2
28/06:00pm 29.4 34.1 24.3 74 3.6 NW 7 9 4 5 1006.0 1005.9 9.2
28/05:30pm 29.8 34.5 24.0 71 4.0 W 6 9 3 5 1005.8 1005.7 9.2
28/05:00pm 29.4 33.9 24.0 72 3.7 W 7 9 4 5 1005.8 1005.7 9.2
28/04:30pm 28.9 33.2 23.6 73 3.7 WSW 7 9 4 5 1006.0 1005.9 9.2
28/04:00pm 27.5 31.2 23.3 78 2.9 W 9 11 5 6 1006.2 1006.1 9.2
28/03:30pm 27.5 32.4 24.6 84 2.0 SW 7 9 4 5 1006.4 1006.3 9.2
28/03:00pm 26.7 31.1 24.5 88 1.5 WSW 9 11 5 6 1007.0 1006.9 9.2
28/02:30pm 25.9 31.4 24.1 90 1.2 NNW 2 6 1 3 1007.4 1007.3 9.2
28/02:00pm 25.9 28.2 23.4 86 1.7 NNE 17 26 9 14 1007.7 1007.6 2.4
28/01:57pm 26.0 27.6 22.9 83 2.1 NNE 19 26 10 14 1007.7 1007.6 1.8
28/01:30pm 31.0 33.7 22.9 62 5.6 S 13 22 7 12 1007.6 1007.5 0.0
28/01:00pm 30.8 33.9 22.9 62 5.4 S 11 15 6 8 1008.4 1008.3 0.0
28/12:30pm 30.2 33.8 23.1 65 4.9 SW 9 15 5 8 1008.5 1008.4 0.0
28/12:00pm 30.2 33.8 23.1 65 4.9 SSW 9 17 5 9 1009.3 1009.2 0.0
28/11:30am 29.7 33.6 23.6 69 4.2 SSW 9 15 5 8 1009.8 1009.7 0.0
28/11:00am 29.4 33.7 24.3 74 3.5 SW 9 15 5 8 1010.3 1010.2 0.0
28/10:30am 28.6 32.2 23.7 75 3.4 SW 11 17 6 9 1010.9 1010.7 0.0
28/10:00am 27.2 30.9 23.9 82 2.3 S 11 15 6 8 1010.9 1010.7 0.0
28/09:30am 26.1 30.4 23.6 86 1.7 S 7 11 4 6 1010.9 1010.7 0.0
28/09:00am 25.0 29.1 23.2 90 1.2 S 7 13 4 7 1011.0 1010.8 12.0
28/08:30am 24.1 27.8 22.5 91 1.1 SSW 7 11 4 6 1010.9 1010.7 12.0
28/08:00am 24.3 28.3 22.7 91 1.1 SE 6 9 3 5 1010.3 1010.2 12.0
28/07:30am 23.9 27.5 22.3 91 1.1 S 7 9 4 5 1010.1 1010.0 12.0
28/07:00am 23.6 27.1 22.2 92 0.9 S 7 11 4 6 1010.1 1010.0 12.0
28/06:30am 23.4 26.3 21.8 91 1.1 SSE 9 11 5 6 1009.7 1009.6 12.0
28/06:00am 23.4 25.7 22.0 92 0.9 SSE 13 17 7 9 1009.2 1009.1 12.0
28/05:30am 24.1 28.0 22.5 91 1.1 SSW 6 7 3 4 1008.9 1008.8 10.8
28/05:00am 24.5 27.2 22.8 90 1.1 SSW 13 19 7 10 1008.5 1008.4 10.4
28/04:30am 25.2 28.7 23.6 91 1.1 S 11 15 6 8 1008.7 1008.6 10.2
28/04:00am 25.5 30.0 23.7 90 1.2 S 6 7 3 4 1008.4 1008.3 10.0
28/03:30am 25.7 29.9 24.1 91 1.1 S 9 13 5 7 1008.3 1008.2 10.0
28/03:00am 25.6 30.2 23.8 90 1.2 SSW 6 9 3 5 1008.1 1008.0 10.0
28/02:30am 25.6 31.1 24.0 91 1.1 E 2 4 1 2 1008.2 1008.1 9.8
28/02:00am 25.4 30.4 23.8 91 1.1 E 4 7 2 4 1008.2 1008.1 9.8
28/01:30am 25.1 29.9 23.5 91 1.1 SSE 4 6 2 3 1008.3 1008.2 9.6
28/01:00am 25.1 29.2 23.0 88 1.4 NE 6 9 3 5 1008.7 1008.6 7.8
28/12:30am 26.7 31.6 24.4 87 1.6 WNW 6 9 3 5 1008.6 1008.5 0.6
28/12:00am 27.3 33.1 24.6 85 1.9 NNE 2 4 1 2 1008.7 1008.6 0.4
 
Date/Time
CST
Tmp

°C
App
Tmp
°C
Dew
Point
°C
Rel
Hum
%
Delta-T

°C
Wind Press
QNH
hPa
Press
MSL
hPa
Rain
since
9 am
mm
Dir
 
Spd
km/h
Gust
km/h
Spd
kts
Gust
kts
27/11:30pm 27.5 32.0 23.9 81 2.5 NNW 7 9 4 5 1008.6 1008.5 0.2
27/11:00pm 27.4 31.8 23.8 81 2.5 N 7 9 4 5 1008.7 1008.6 0.2
27/10:30pm 27.6 32.7 24.0 81 2.5 N 4 4 2 2 1008.9 1008.8 0.2
27/10:00pm 27.3 31.8 23.7 81 2.5 WNW 6 7 3 4 1009.1 1009.0 0.2
27/09:30pm 27.2 31.9 23.4 80 2.6 WNW 4 6 2 3 1008.6 1008.5 0.2
27/09:00pm 27.6 31.7 23.2 77 3.0 N 7 9 4 5 1007.9 1007.8 0.2
27/08:30pm 28.4 31.6 23.1 73 3.6 N 11 15 6 8 1007.5 1007.4 0.2
27/08:00pm 28.5 31.8 22.5 70 4.1 N 9 15 5 8 1007.5 1007.4 0.2
27/07:30pm 28.1 31.3 21.6 68 4.4 N 7 7 4 4 1007.1 1007.0 0.2
27/07:00pm 29.4 32.3 21.1 61 5.5 N 7 11 4 6 1006.6 1006.5 0.2
27/06:30pm 30.6 33.4 20.8 56 6.5 N 7 11 4 6 1006.4 1006.3 0.2
27/06:00pm 31.8 33.1 20.1 50 7.8 N 13 19 7 10 1006.1 1006.0 0.2
27/05:30pm 32.6 32.8 20.2 48 8.3 N 19 24 10 13 1005.8 1005.7 0.2
27/05:00pm 33.8 33.8 19.8 43 9.3 N 19 24 10 13 1005.4 1005.3 0.2
27/04:30pm 34.5 34.7 20.1 43 9.6 N 19 28 10 15 1005.2 1005.1 0.2
27/04:00pm 34.5 33.9 19.7 41 9.8 N 22 30 12 16 1005.2 1005.1 0.2
27/03:30pm 34.3 34.4 19.9 42 9.6 NNE 19 28 10 15 1005.6 1005.5 0.2
27/03:00pm 35.4 37.1 20.9 42 9.8 NE 13 30 7 16 1005.8 1005.7 0.2
27/02:30pm 34.8 36.4 20.0 42 9.9 NNE 11 19 6 10 1006.2 1006.1 0.2
27/02:00pm 34.7 37.0 21.4 46 9.0 NNE 11 20 6 11 1006.5 1006.4 0.2
27/01:30pm 34.6 36.7 20.2 43 9.6 NE 9 15 5 8 1007.0 1006.9 0.2
27/01:00pm 35.1 37.0 20.6 42 9.8 E 11 17 6 9 1007.5 1007.4 0.2
27/12:30pm 33.7 35.6 19.7 43 9.3 NNE 9 20 5 11 1007.9 1007.8 0.2
27/12:00pm 34.6 37.5 20.6 44 9.4 NE 6 15 3 8 1008.2 1008.1 0.2
27/11:30am 33.2 34.8 20.0 45 8.8 ENE 11 20 6 11 1008.6 1008.5 0.2
27/11:00am 33.1 35.9 21.6 51 7.8 E 9 19 5 10 1009.2 1009.1 0.2
27/10:30am 31.2 35.1 21.9 57 6.3 E 4 13 2 7 1009.9 1009.8 0.2
27/10:00am 30.6 34.9 21.9 59 5.9 E 2 6 1 3 1010.1 1010.0 0.2
27/09:30am 31.0 35.1 22.9 62 5.6 ESE 6 9 3 5 1010.0 1009.9 0.2
27/09:00am 29.5 33.8 22.7 67 4.6 SE 4 7 2 4 1010.1 1010.0 3.0
27/08:30am 29.5 34.1 24.1 72 3.8 ESE 7 11 4 6 1009.7 1009.6 3.0
27/08:00am 28.5 33.6 24.7 80 2.7 SSE 6 9 3 5 1009.8 1009.7 3.0
27/07:30am 27.6 33.2 24.2 82 2.4 SSE 2 4 1 2 1009.0 1008.9 3.0
27/07:00am 26.1 31.9 24.5 91 1.1 S 2 4 1 2 1008.8 1008.7 3.0
27/06:30am 24.8 30.2 23.2 91 1.1 CALM 0 0 0 0 1008.6 1008.5 3.0
27/06:00am 24.9 29.3 23.5 92 1.0 SSE 6 6 3 3 1008.4 1008.3 3.0
27/05:30am 25.1 30.0 23.7 92 1.0 ESE 4 4 2 2 1007.9 1007.8 3.0
27/05:00am 25.2 30.6 23.8 92 1.0 NNE 2 4 1 2 1007.6 1007.5 3.0
27/04:30am 25.2 30.8 23.6 91 1.1 CALM 0 0 0 0 1007.4 1007.3 3.0
27/04:00am 25.4 30.6 23.6 90 1.2 NNE 2 4 1 2 1007.2 1007.1 3.0
27/03:30am 25.7 31.1 23.9 90 1.2 NNE 2 4 1 2 1007.3 1007.2 3.0
27/03:00am 25.7 30.7 23.9 90 1.2 NNE 4 6 2 3 1007.2 1007.1 3.0
27/02:30am 25.7 30.2 23.7 89 1.4 NNE 6 6 3 3 1007.1 1007.0 3.0
27/02:00am 26.0 31.0 23.9 88 1.4 NNW 4 6 2 3 1007.2 1007.1 3.0
27/01:30am 26.4 32.6 24.6 90 1.3 CALM 0 0 0 0 1007.8 1007.7 2.6
27/01:00am 26.5 32.5 24.2 87 1.6 CALM 0 0 0 0 1008.1 1008.0 2.6
27/12:30am 26.7 33.0 24.7 89 1.4 CALM 0 0 0 0 1008.4 1008.3 2.6
27/12:00am 26.5 31.3 24.2 87 1.6 NE 6 7 3 4 1008.5 1008.4 2.6
 
Date/Time
CST
Tmp

°C
App
Tmp
°C
Dew
Point
°C
Rel
Hum
%
Delta-T

°C
Wind Press
QNH
hPa
Press
MSL
hPa
Rain
since
9 am
mm
Dir
 
Spd
km/h
Gust
km/h
Spd
kts
Gust
kts
26/11:30pm 26.6 32.5 24.1 86 1.7 CALM 0 0 0 0 1008.7 1008.6 2.6
26/11:00pm 27.2 33.3 24.5 85 1.9 CALM 0 0 0 0 1008.9 1008.8 2.6
26/10:30pm 26.9 32.6 23.8 83 2.1 CALM 0 0 0 0 1008.6 1008.5 2.6
26/10:00pm 26.5 31.0 23.6 84 2.0 WNW 6 7 3 4 1008.3 1008.2 2.6
26/09:30pm 26.7 31.7 23.8 84 2.0 WSW 4 6 2 3 1008.1 1008.0 2.6
26/09:00pm 27.1 32.2 23.3 80 2.6 N 2 6 1 3 1007.6 1007.5 2.6
26/08:30pm 27.2 31.3 23.2 79 2.7 N 7 11 4 6 1007.0 1006.9 2.6
26/08:00pm 26.7 30.4 22.5 78 2.8 N 7 9 4 5 1006.5 1006.4 2.6
26/07:30pm 26.9 30.2 22.5 77 3.0 N 9 11 5 6 1006.0 1005.9 2.6
26/07:00pm 27.4 31.0 22.4 74 3.4 NE 7 11 4 6 1005.6 1005.5 2.6
26/06:30pm 28.0 31.1 21.5 67 4.4 N 7 11 4 6 1005.4 1005.3 2.6
26/06:00pm 28.7 31.6 21.0 63 5.1 N 7 11 4 6 1005.5 1005.4 2.6
26/05:30pm 27.5 27.3 19.8 63 5.0 N 20 28 11 15 1005.3 1005.2 2.6
26/05:04pm 29.3 27.1 18.7 52 6.8 NE 28 48 15 26 1005.5 1005.4 2.6
26/05:00pm 29.5 28.3 19.2 54 6.7 NE 24 48 13 26 1005.6 1005.5 2.6
26/04:30pm 33.0 35.8 21.5 50 7.8 NNW 9 15 5 8 1004.8 1004.7 2.6
26/04:00pm 30.3 34.5 23.5 67 4.7 WNW 7 11 4 6 1004.9 1004.8 2.6
26/03:30pm 29.8 33.2 23.3 68 4.5 NNW 11 15 6 8 1005.0 1004.9 2.6
26/03:00pm 28.7 32.7 22.7 70 4.1 N 6 7 3 4 1005.6 1005.5 2.6
26/02:30pm 26.6 29.7 23.5 83 2.1 N 13 17 7 9 1005.6 1005.5 2.6
26/02:00pm 29.9 26.9 19.9 55 6.6 N 35 48 19 26 1006.1 1006.0 0.2
26/01:53pm 33.0 32.8 22.7 54 7.1 N 28 41 15 22 1006.2 1006.1 0.2
26/01:30pm 35.4 38.0 20.5 41 10.0 SSE 7 17 4 9 1005.8 1005.7 0.2
26/01:00pm 33.6 36.1 21.1 48 8.4 SSE 9 20 5 11 1006.4 1006.3 0.2
26/12:30pm 34.2 37.8 22.3 50 8.2 SSW 7 13 4 7 1007.0 1006.9 0.2
26/12:00pm 33.1 37.2 22.2 52 7.5 N 4 9 2 5 1007.8 1007.7 0.2
26/11:30am 32.7 37.5 22.8 56 6.8 NE 2 9 1 5 1008.1 1008.0 0.2
26/11:00am 32.3 36.3 22.7 57 6.6 ENE 6 11 3 6 1008.5 1008.4 0.2
26/10:30am 30.2 34.0 22.4 63 5.3 N 6 11 3 6 1008.9 1008.8 0.2
26/10:00am 30.4 34.2 22.8 64 5.2 E 7 13 4 7 1009.2 1009.1 0.2
26/09:30am 29.2 33.0 23.4 71 4.0 ENE 9 17 5 9 1009.3 1009.2 0.0
26/09:00am 28.2 32.3 23.3 75 3.4 ESE 7 11 4 6 1009.3 1009.2 41.0
26/08:30am 27.1 31.1 23.1 79 2.7 ESE 7 11 4 6 1009.0 1008.9 41.0
26/08:00am 26.9 30.8 23.6 82 2.3 SE 9 13 5 7 1008.8 1008.7 41.0
26/07:30am 25.8 30.0 23.5 87 1.6 SSE 7 9 4 5 1008.3 1008.2 41.0

Latest Capital City Observations: Canberra | Sydney | Melbourne | Brisbane | Adelaide | Perth | Hobart | Darwin

Other Formats:

Comma delimited format used in spreadsheet applications
http://www.bom.gov.au/fwo/IDD60901/IDD60901.95121.axf

JavaScript Object Notation format (JSON) in row-major order
http://www.bom.gov.au/fwo/IDD60901/IDD60901.95121.json